createdAt,value
2023-05-20T00:00:54.692Z,100171.86
2023-05-20T00:03:21.919Z,100179.08
2023-05-20T00:05:49.156Z,100175.48
2023-05-20T00:08:16.294Z,100179.48
2023-05-20T00:10:43.267Z,100172.42
2023-05-20T00:13:10.369Z,100157.19
2023-05-20T00:15:37.961Z,100160.95
2023-05-20T00:18:05.362Z,100157.48
2023-05-20T00:20:32.890Z,100162.67
2023-05-20T00:23:00.241Z,100150.45
2023-05-20T00:25:27.443Z,100148.38
2023-05-20T00:27:54.530Z,100150.80
2023-05-20T00:30:22.511Z,100143.94
2023-05-20T00:32:49.653Z,100144.46
2023-05-20T00:35:17.772Z,100144.71
2023-05-20T00:37:45.593Z,100148.57
2023-05-20T00:40:15.399Z,100147.21
2023-05-20T00:42:43.294Z,100157.59
2023-05-20T00:45:10.993Z,100161.24
2023-05-20T00:47:38.633Z,100150.94
2023-05-20T00:50:07.364Z,100150.19
2023-05-20T00:52:34.396Z,100150.42
2023-05-20T00:55:01.486Z,100150.67
2023-05-20T00:57:28.526Z,100149.58
2023-05-20T00:59:55.703Z,100150.69
2023-05-20T01:02:22.835Z,100148.10
2023-05-20T01:04:50.337Z,100150.04
2023-05-20T01:07:17.893Z,100152.20
2023-05-20T01:09:45.351Z,100149.98
2023-05-20T01:12:18.319Z,100149.86
2023-05-20T01:14:50.548Z,100143.21
2023-05-20T01:17:18.363Z,100141.16
2023-05-20T01:19:45.936Z,100139.36
2023-05-20T01:22:13.682Z,100145.18
2023-05-20T01:24:45.380Z,100142.88
2023-05-20T01:27:13.693Z,100149.33
2023-05-20T01:29:42.241Z,100145.45
2023-05-20T01:32:14.935Z,100152.36
2023-05-20T01:34:42.007Z,100154.73
2023-05-20T01:37:09.424Z,100160.64
2023-05-20T01:39:38.054Z,100161.77
2023-05-20T01:42:05.483Z,100160.95
2023-05-20T01:44:33.029Z,100159.71
2023-05-20T01:47:00.509Z,100163.08
2023-05-20T01:49:28.142Z,100169.73
2023-05-20T01:51:56.213Z,100177.48
2023-05-20T01:54:23.263Z,100180.69
2023-05-20T01:56:50.436Z,100184.33
2023-05-20T01:59:17.386Z,100172.95
2023-05-20T02:01:44.430Z,100161.52
2023-05-20T02:04:12.017Z,100159.12
2023-05-20T02:06:39.214Z,100157.39
2023-05-20T02:09:06.516Z,100156.16
2023-05-20T02:11:33.512Z,100156.54
2023-05-20T02:14:00.494Z,100156.96
2023-05-20T02:16:28.449Z,100155.88
2023-05-20T02:18:58.844Z,100158.44
2023-05-20T02:21:26.013Z,100163.09
2023-05-20T02:23:55.511Z,100177.22
2023-05-20T02:26:25.744Z,100186.38
2023-05-20T02:28:52.694Z,100186.25
2023-05-20T02:31:24.505Z,100191.27
2023-05-20T02:33:51.680Z,100192.14
2023-05-20T02:36:18.716Z,100189.97
2023-05-20T02:38:45.651Z,100191.35
2023-05-20T02:41:12.679Z,100193.30
2023-05-20T02:43:42.327Z,100192.30
2023-05-20T02:46:09.339Z,100195.48
2023-05-20T02:48:36.362Z,100194.44
2023-05-20T02:51:04.663Z,100199.33
2023-05-20T02:53:31.621Z,100201.30
2023-05-20T02:55:58.576Z,100200.02
2023-05-20T02:58:26.602Z,100205.23
2023-05-20T03:00:54.009Z,100203.06
2023-05-20T03:03:21.979Z,100205.05
2023-05-20T03:05:49.135Z,100205.82
2023-05-20T03:08:23.252Z,100208.02
2023-05-20T03:10:51.002Z,100205.98
2023-05-20T03:13:18.523Z,100208.81
2023-05-20T03:15:45.691Z,100205.27
2023-05-20T03:18:14.011Z,100208.45
2023-05-20T03:20:41.857Z,100211.61
2023-05-20T03:23:10.013Z,100210.63
2023-05-20T03:25:37.806Z,100215.84
2023-05-20T03:28:06.812Z,100213.33
2023-05-20T03:30:35.479Z,100211.71
2023-05-20T03:35:31.928Z,100217.72
2023-05-20T03:38:01.953Z,100218.77
2023-05-20T03:40:29.320Z,100225.25
2023-05-20T03:42:56.645Z,100223.73
2023-05-20T03:45:25.540Z,100226.83
2023-05-20T03:48:07.348Z,100227.38
2023-05-20T03:50:35.266Z,100234.08
2023-05-20T03:53:02.745Z,100238.38
2023-05-20T03:55:35.288Z,100241.92
2023-05-20T03:58:03.130Z,100241.13
2023-05-20T04:00:32.043Z,100242.84
2023-05-20T04:02:59.721Z,100240.80
2023-05-20T04:05:27.189Z,100242.30
2023-05-20T04:07:54.989Z,100243.69
2023-05-20T04:10:22.344Z,100245.59
2023-05-20T04:12:50.911Z,100243.95
2023-05-20T04:15:19.655Z,100245.89
2023-05-20T04:17:54.852Z,100244.78
2023-05-20T04:20:22.284Z,100247.06
2023-05-20T04:22:54.229Z,100245.36
2023-05-20T04:25:22.161Z,100249.77
2023-05-20T04:27:49.920Z,100248.31
2023-05-20T04:30:20.564Z,100250.89
2023-05-20T04:32:48.603Z,100256.64
2023-05-20T04:35:15.587Z,100258.12
2023-05-20T04:37:53.314Z,100257.26
2023-05-20T04:40:21.338Z,100251.30
2023-05-20T04:42:48.332Z,100252.59
2023-05-20T04:45:15.655Z,100251.20
2023-05-20T04:47:44.588Z,100257.85
2023-05-20T04:50:11.856Z,100257.34
2023-05-20T04:52:42.095Z,100263.55
2023-05-20T04:55:12.545Z,100261.89
2023-05-20T04:57:42.587Z,100264.36
2023-05-20T05:00:12.602Z,100262.64
2023-05-20T05:02:39.890Z,100267.70
2023-05-20T05:05:07.668Z,100268.25
2023-05-20T05:07:35.075Z,100267.86
2023-05-20T05:10:03.369Z,100257.49
2023-05-20T05:12:31.320Z,100268.42
2023-05-20T05:14:59.436Z,100273.86
2023-05-20T05:17:28.959Z,100277.38
2023-05-20T05:19:57.314Z,100279.20
2023-05-20T05:22:24.737Z,100276.65
2023-05-20T05:24:52.472Z,100280.39
2023-05-20T05:27:19.501Z,100284.77
2023-05-20T05:29:46.461Z,100279.42
2023-05-20T05:32:13.676Z,100275.86
2023-05-20T05:34:41.104Z,100276.73
2023-05-20T05:37:08.263Z,100271.54
2023-05-20T05:39:37.930Z,100272.67
2023-05-20T05:42:05.946Z,100273.23
2023-05-20T05:44:33.477Z,100276.88
2023-05-20T05:47:00.589Z,100279.39
2023-05-20T05:49:27.580Z,100282.55
2023-05-20T05:51:54.616Z,100283.65
2023-05-20T05:54:22.081Z,100279.70
2023-05-20T05:56:53.848Z,100284.73
2023-05-20T05:59:25.625Z,100280.19
2023-05-20T06:02:14.898Z,100279.30
2023-05-20T06:04:42.302Z,100281.17
2023-05-20T06:07:10.021Z,100276.52
2023-05-20T06:09:37.214Z,100283.08
2023-05-20T06:12:04.668Z,100283.24
2023-05-20T06:14:32.699Z,100285.67
2023-05-20T06:16:59.858Z,100281.52
2023-05-20T06:19:27.074Z,100285.92
2023-05-20T06:21:54.117Z,100288.09
2023-05-20T06:24:22.394Z,100288.22
2023-05-20T06:26:52.600Z,100288.80
2023-05-20T06:29:19.701Z,100281.80
2023-05-20T06:31:46.690Z,100284.69
2023-05-20T06:34:13.937Z,100285.59
2023-05-20T06:36:41.620Z,100280.42
2023-05-20T06:39:12.615Z,100281.23
2023-05-20T06:41:43.166Z,100276.16
2023-05-20T06:44:10.701Z,100275.84
2023-05-20T06:46:52.967Z,100278.43
2023-05-20T06:49:20.498Z,100281.02
2023-05-20T06:51:48.500Z,100282.04
2023-05-20T06:54:16.077Z,100276.86
2023-05-20T06:56:44.544Z,100285.22
2023-05-20T06:59:11.562Z,100287.41
2023-05-20T07:01:39.361Z,100287.81
2023-05-20T07:04:07.288Z,100284.48
2023-05-20T07:06:34.836Z,100292.42
2023-05-20T07:09:01.959Z,100284.97
2023-05-20T07:11:28.964Z,100284.59
2023-05-20T07:13:56.002Z,100290.80
2023-05-20T07:16:25.103Z,100289.52
2023-05-20T07:18:54.626Z,100282.89
2023-05-20T07:21:21.612Z,100280.67
2023-05-20T07:24:11.656Z,100271.89
2023-05-20T07:26:38.728Z,100274.44
2023-05-20T07:29:05.939Z,100273.83
2023-05-20T07:31:33.623Z,100272.01
2023-05-20T07:34:00.580Z,100274.16
2023-05-20T07:36:28.105Z,100275.08
2023-05-20T07:39:02.399Z,100276.80
2023-05-20T07:41:34.264Z,100271.30
2023-05-20T07:44:05.150Z,100264.46
2023-05-20T07:46:33.236Z,100268.26
2023-05-20T07:49:00.855Z,100272.08
2023-05-20T07:51:27.954Z,100276.81
2023-05-20T07:53:54.957Z,100276.08
2023-05-20T07:56:25.275Z,100269.18
2023-05-20T07:58:54.374Z,100273.97
2023-05-20T08:01:22.175Z,100271.06
2023-05-20T08:03:49.858Z,100269.66
2023-05-20T08:06:25.790Z,100280.73
2023-05-20T08:08:54.466Z,100280.58
2023-05-20T08:11:25.150Z,100279.55
2023-05-20T08:13:52.260Z,100289.66
2023-05-20T08:16:21.714Z,100283.33
2023-05-20T08:18:48.969Z,100272.96
2023-05-20T08:21:16.114Z,100272.73
2023-05-20T08:23:43.232Z,100276.48
2023-05-20T08:26:10.195Z,100284.41
2023-05-20T08:28:39.969Z,100275.51
2023-05-20T08:31:07.581Z,100277.00
2023-05-20T08:33:35.375Z,100274.25
2023-05-20T08:36:02.664Z,100274.66
2023-05-20T08:38:29.996Z,100274.08
2023-05-20T08:40:57.667Z,100279.31
2023-05-20T08:43:25.087Z,100280.34
2023-05-20T08:45:55.134Z,100282.83
2023-05-20T08:48:26.343Z,100282.05
2023-05-20T08:50:53.661Z,100280.80
2023-05-20T08:53:21.199Z,100286.95
2023-05-20T08:56:00.990Z,100283.51
2023-05-20T08:58:29.608Z,100277.74
2023-05-20T09:00:56.598Z,100274.80
2023-05-20T09:03:24.542Z,100273.98
2023-05-20T09:05:53.164Z,100270.48
2023-05-20T09:08:20.576Z,100264.00
2023-05-20T09:10:47.591Z,100268.81
2023-05-20T09:13:14.573Z,100267.40
2023-05-20T09:15:41.826Z,100265.32
2023-05-20T09:18:09.344Z,100272.47
2023-05-20T09:20:37.754Z,100259.61
2023-05-20T09:23:06.552Z,100257.04
2023-05-20T09:25:33.866Z,100259.94
2023-05-20T09:28:01.204Z,100254.66
2023-05-20T09:30:28.353Z,100255.95
2023-05-20T09:32:58.849Z,100257.61
2023-05-20T09:35:46.791Z,100258.39
2023-05-20T09:38:13.905Z,100266.35
2023-05-20T09:40:41.648Z,100267.14
2023-05-20T09:43:08.927Z,100262.84
2023-05-20T09:45:39.787Z,100268.46
2023-05-20T09:48:09.161Z,100268.48
2023-05-20T09:50:36.758Z,100272.83
2023-05-20T09:53:04.463Z,100266.68
2023-05-20T09:55:32.172Z,100257.47
2023-05-20T09:58:02.307Z,100259.23
2023-05-20T10:00:29.292Z,100260.91
2023-05-20T10:02:57.133Z,100261.87
2023-05-20T10:05:36.824Z,100259.46
2023-05-20T10:08:26.310Z,100264.30
2023-05-20T10:11:25.442Z,100264.03
2023-05-20T10:13:58.447Z,100263.57
2023-05-20T10:16:39.060Z,100258.87
2023-05-20T10:19:32.910Z,100252.48
2023-05-20T10:22:04.304Z,100241.52
2023-05-20T10:24:32.872Z,100250.41
2023-05-20T10:27:02.945Z,100221.02
2023-05-20T10:29:30.217Z,100218.61
2023-05-20T10:31:57.285Z,100215.09
2023-05-20T10:34:24.605Z,100213.43
2023-05-20T10:36:54.655Z,100211.82
2023-05-20T10:39:31.542Z,100216.28
2023-05-20T10:42:09.443Z,100212.05
2023-05-20T10:44:47.248Z,100208.14
2023-05-20T10:49:47.612Z,100205.20
2023-05-20T10:52:14.829Z,100213.16
2023-05-20T10:54:56.840Z,100217.64
2023-05-20T10:57:24.781Z,100218.33
2023-05-20T10:59:51.911Z,100216.58
2023-05-20T11:02:20.083Z,100209.95
2023-05-20T11:04:47.326Z,100209.98
2023-05-20T11:07:29.068Z,100212.23
2023-05-20T11:09:56.923Z,100210.61
2023-05-20T11:12:24.593Z,100197.23
2023-05-20T11:14:51.955Z,100199.73
2023-05-20T11:17:19.361Z,100195.48
2023-05-20T11:19:47.528Z,100200.80
2023-05-20T11:22:14.667Z,100199.55
2023-05-20T11:24:41.703Z,100202.96
2023-05-20T11:27:08.791Z,100191.36
2023-05-20T11:29:35.727Z,100187.98
2023-05-20T11:32:02.767Z,100187.73
2023-05-20T11:34:36.995Z,100184.35
2023-05-20T11:37:08.020Z,100187.89
2023-05-20T11:39:35.071Z,100187.48
2023-05-20T11:42:02.060Z,100183.65
2023-05-20T11:44:29.125Z,100182.15
2023-05-20T11:47:03.323Z,100184.19
2023-05-20T11:49:31.067Z,100189.87
2023-05-20T11:51:58.697Z,100187.90
2023-05-20T11:54:26.314Z,100180.65
2023-05-20T11:56:54.352Z,100179.98
2023-05-20T11:59:22.099Z,100180.85
2023-05-20T12:01:49.077Z,100176.85
2023-05-20T12:04:20.207Z,100177.44
2023-05-20T12:06:47.568Z,100172.60
2023-05-20T12:09:14.897Z,100178.10
2023-05-20T12:11:42.488Z,100174.34
2023-05-20T12:14:09.670Z,100173.83
2023-05-20T12:16:37.405Z,100171.22
2023-05-20T12:19:04.629Z,100171.50
2023-05-20T12:21:32.079Z,100165.66
2023-05-20T12:23:59.589Z,100168.77
2023-05-20T12:26:27.620Z,100166.54
2023-05-20T12:28:55.223Z,100154.07
2023-05-20T12:31:22.374Z,100166.70
2023-05-20T12:33:49.412Z,100176.71
2023-05-20T12:36:16.541Z,100175.95
2023-05-20T12:38:43.571Z,100180.66
2023-05-20T12:41:10.515Z,100180.29
2023-05-20T12:43:37.776Z,100173.30
2023-05-20T12:46:05.118Z,100173.59
2023-05-20T12:48:32.108Z,100166.69
2023-05-20T12:50:59.224Z,100172.70
2023-05-20T12:53:26.272Z,100168.61
2023-05-20T12:55:53.398Z,100170.42
2023-05-20T12:58:20.609Z,100169.30
2023-05-20T13:00:47.645Z,100161.11
2023-05-20T13:03:15.113Z,100146.35
2023-05-20T13:05:42.464Z,100143.57
2023-05-20T13:08:10.362Z,100141.66
2023-05-20T13:10:38.127Z,100145.69
2023-05-20T13:13:05.609Z,100153.30
2023-05-20T13:15:33.685Z,100158.65
2023-05-20T13:18:01.800Z,100154.65
2023-05-20T13:20:29.925Z,100131.60
2023-05-20T13:22:56.879Z,100119.78
2023-05-20T13:25:23.897Z,100123.11
2023-05-20T13:27:51.177Z,100117.58
2023-05-20T13:30:18.146Z,100120.09
2023-05-20T13:32:45.275Z,100123.70
2023-05-20T13:35:13.332Z,100128.52
2023-05-20T13:37:40.178Z,100126.98
2023-05-20T13:40:08.675Z,100118.88
2023-05-20T13:42:35.641Z,100112.84
2023-05-20T13:45:02.659Z,100113.09
2023-05-20T13:47:29.725Z,100109.36
2023-05-20T13:49:56.904Z,100111.55
2023-05-20T13:52:24.010Z,100110.16
2023-05-20T13:54:51.031Z,100109.61
2023-05-20T13:57:18.083Z,100109.52
2023-05-20T13:59:45.027Z,100112.92
2023-05-20T14:02:12.053Z,100109.65
2023-05-20T14:04:40.275Z,100104.07
2023-05-20T14:07:09.594Z,100109.27
2023-05-20T14:09:37.082Z,100109.42
2023-05-20T14:12:05.271Z,100116.20
2023-05-20T14:14:32.362Z,100116.28
2023-05-20T14:16:59.700Z,100109.55
2023-05-20T14:19:27.374Z,100110.20
2023-05-20T14:21:54.607Z,100105.39
2023-05-20T14:24:23.737Z,100103.40
2023-05-20T14:26:51.173Z,100103.60
2023-05-20T14:29:18.195Z,100106.60
2023-05-20T14:31:45.247Z,100105.69
2023-05-20T14:34:12.724Z,100096.86
2023-05-20T14:36:39.750Z,100103.08
2023-05-20T14:39:06.900Z,100099.41
2023-05-20T14:41:33.892Z,100093.58
2023-05-20T14:44:00.813Z,100089.03
2023-05-20T14:46:27.977Z,100086.98
2023-05-20T14:48:55.091Z,100085.26
2023-05-20T14:51:22.134Z,100085.27
2023-05-20T14:53:49.270Z,100085.79
2023-05-20T14:56:16.200Z,100075.21
2023-05-20T14:58:43.142Z,100082.17
2023-05-20T15:01:10.374Z,100085.14
2023-05-20T15:03:37.464Z,100083.00
2023-05-20T15:06:04.537Z,100082.00
2023-05-20T15:08:31.598Z,100084.80
2023-05-20T15:10:58.732Z,100079.81
2023-05-20T15:13:25.725Z,100076.73
2023-05-20T15:15:53.611Z,100073.38
2023-05-20T15:18:20.869Z,100073.65
2023-05-20T15:20:47.863Z,100071.54
2023-05-20T15:23:15.156Z,100070.30
2023-05-20T15:25:42.094Z,100068.44
2023-05-20T15:28:08.987Z,100069.48
2023-05-20T15:30:36.337Z,100066.05
2023-05-20T15:33:04.075Z,100061.16
2023-05-20T15:35:31.229Z,100062.27
2023-05-20T15:37:58.198Z,100060.16
2023-05-20T15:40:25.148Z,100062.05
2023-05-20T15:42:53.631Z,100062.09
2023-05-20T15:45:20.859Z,100066.36
2023-05-20T15:47:47.919Z,100068.41
2023-05-20T15:50:15.069Z,100067.52
2023-05-20T15:52:42.147Z,100066.34
2023-05-20T15:55:10.069Z,100061.52
2023-05-20T15:57:36.943Z,100057.14
2023-05-20T16:00:07.176Z,100053.54
2023-05-20T16:02:36.260Z,100049.11
2023-05-20T16:05:04.622Z,100054.22
2023-05-20T16:07:31.700Z,100052.48
2023-05-20T16:09:58.657Z,100060.85
2023-05-20T16:12:26.003Z,100063.02
2023-05-20T16:14:52.949Z,100058.23
2023-05-20T16:17:21.801Z,100063.55
2023-05-20T16:19:48.846Z,100059.55
2023-05-20T16:22:16.590Z,100059.04
2023-05-20T16:24:44.041Z,100056.14
2023-05-20T16:27:11.422Z,100060.88
2023-05-20T16:29:39.983Z,100062.15
2023-05-20T16:32:07.532Z,100064.52
2023-05-20T16:34:34.725Z,100055.23
2023-05-20T16:37:02.561Z,100056.06
2023-05-20T16:39:29.556Z,100059.44
2023-05-20T16:41:56.648Z,100060.28
2023-05-20T16:44:23.647Z,100064.73
2023-05-20T16:46:52.668Z,100056.17
2023-05-20T16:49:21.335Z,100059.30
2023-05-20T16:51:48.644Z,100061.58
2023-05-20T16:54:15.873Z,100059.27
2023-05-20T16:56:42.818Z,100054.14
2023-05-20T16:59:09.768Z,100050.22
2023-05-20T17:01:37.191Z,100053.86
2023-05-20T17:04:04.840Z,100051.98
2023-05-20T17:06:34.285Z,100054.52
2023-05-20T17:09:04.191Z,100051.84
2023-05-20T17:11:31.343Z,100052.34
2023-05-20T17:13:58.552Z,100053.25
2023-05-20T17:16:25.577Z,100053.82
2023-05-20T17:18:53.933Z,100051.29
2023-05-20T17:21:21.145Z,100053.94
2023-05-20T17:23:48.316Z,100049.87
2023-05-20T17:26:15.997Z,100046.61
2023-05-20T17:28:43.133Z,100045.10
2023-05-20T17:31:10.239Z,100051.92
2023-05-20T17:33:37.250Z,100045.88
2023-05-20T17:36:04.627Z,100047.37
2023-05-20T17:38:33.981Z,100044.27
2023-05-20T17:41:01.118Z,100046.95
2023-05-20T17:43:28.615Z,100048.43
2023-05-20T17:45:55.836Z,100052.11
2023-05-20T17:48:25.445Z,100054.17
2023-05-20T17:50:52.499Z,100054.60
2023-05-20T17:53:21.958Z,100058.06
2023-05-20T17:55:49.584Z,100061.49
2023-05-20T17:58:17.146Z,100061.74
2023-05-20T18:00:44.270Z,100060.84
2023-05-20T18:03:11.808Z,100057.48
2023-05-20T18:05:39.073Z,100062.20
2023-05-20T18:08:06.069Z,100063.06
2023-05-20T18:10:35.505Z,100065.23
2023-05-20T18:13:02.994Z,100065.30
2023-05-20T18:15:30.760Z,100065.62
2023-05-20T18:17:58.155Z,100065.98
2023-05-20T18:20:25.658Z,100069.84
2023-05-20T18:22:58.327Z,100067.76
2023-05-20T18:25:26.043Z,100067.02
2023-05-20T18:27:53.081Z,100065.50
2023-05-20T18:30:20.236Z,100067.73
2023-05-20T18:32:47.576Z,100067.59
2023-05-20T18:35:14.710Z,100067.83
2023-05-20T18:37:41.745Z,100071.27
2023-05-20T18:40:09.649Z,100068.50
2023-05-20T18:42:37.574Z,100069.05
2023-05-20T18:45:05.199Z,100073.15
2023-05-20T18:47:33.844Z,100070.97
2023-05-20T18:50:00.841Z,100068.00
2023-05-20T18:52:27.830Z,100067.02
2023-05-20T18:54:54.900Z,100062.98
2023-05-20T18:57:22.822Z,100078.42
2023-05-20T18:59:49.782Z,100081.55
2023-05-20T19:02:17.488Z,100087.77
2023-05-20T19:04:44.909Z,100088.00
2023-05-20T19:07:12.142Z,100091.74
2023-05-20T19:09:39.072Z,100093.05
2023-05-20T19:12:06.972Z,100091.86
2023-05-20T19:14:34.098Z,100092.83
2023-05-20T19:17:01.576Z,100091.18
2023-05-20T19:19:28.904Z,100093.81
2023-05-20T19:21:56.168Z,100094.26
2023-05-20T19:24:23.790Z,100098.51
2023-05-20T19:26:51.794Z,100099.52
2023-05-20T19:29:18.945Z,100100.75
2023-05-20T19:31:46.239Z,100105.28
2023-05-20T19:34:13.955Z,100104.83
2023-05-20T19:36:44.528Z,100107.94
2023-05-20T19:39:11.754Z,100112.96
2023-05-20T19:41:38.984Z,100109.70
2023-05-20T19:44:06.323Z,100110.86
2023-05-20T19:46:34.606Z,100091.61
2023-05-20T19:49:02.553Z,100088.84
2023-05-20T19:51:29.556Z,100088.70
2023-05-20T19:53:56.554Z,100087.70
2023-05-20T19:56:24.365Z,100090.42
2023-05-20T19:58:51.741Z,100089.56
2023-05-20T20:01:18.944Z,100085.84
2023-05-20T20:03:46.239Z,100086.73
2023-05-20T20:06:14.389Z,100080.73
2023-05-20T20:08:43.180Z,100084.14
2023-05-20T20:11:10.416Z,100083.84
2023-05-20T20:13:37.480Z,100080.96
2023-05-20T20:16:06.686Z,100080.21
2023-05-20T20:18:33.780Z,100083.70
2023-05-20T20:21:05.439Z,100083.96
2023-05-20T20:23:34.051Z,100086.77
2023-05-20T20:26:02.091Z,100090.23
2023-05-20T20:28:29.071Z,100090.27
2023-05-20T20:30:56.207Z,100089.64
2023-05-20T20:33:26.447Z,100085.95
2023-05-20T20:35:57.003Z,100086.39
2023-05-20T20:38:24.501Z,100086.88
2023-05-20T20:40:53.837Z,100090.38
2023-05-20T20:43:21.507Z,100090.35
2023-05-20T20:45:50.799Z,100088.01
2023-05-20T20:48:18.991Z,100088.55
2023-05-20T20:50:48.059Z,100090.55
2023-05-20T20:53:19.411Z,100092.48
2023-05-20T20:55:46.545Z,100091.47
2023-05-20T20:58:15.743Z,100093.80
2023-05-20T21:00:44.570Z,100090.71
2023-05-20T21:03:12.930Z,100090.50
2023-05-20T21:05:40.161Z,100093.04
2023-05-20T21:08:13.580Z,100094.58
2023-05-20T21:10:40.710Z,100095.44
2023-05-20T21:13:07.978Z,100097.45
2023-05-20T21:15:35.844Z,100093.26
2023-05-20T21:18:03.745Z,100093.34
2023-05-20T21:20:30.861Z,100095.35
2023-05-20T21:22:57.810Z,100092.77
2023-05-20T21:25:25.272Z,100086.59
2023-05-20T21:27:52.235Z,100083.77
2023-05-20T21:30:20.364Z,100080.31
2023-05-20T21:32:47.762Z,100081.24
2023-05-20T21:35:14.863Z,100083.91
2023-05-20T21:37:41.859Z,100084.27
2023-05-20T21:40:09.479Z,100088.31
2023-05-20T21:42:36.647Z,100087.33
2023-05-20T21:45:04.060Z,100084.90
2023-05-20T21:47:31.374Z,100086.48
2023-05-20T21:49:58.780Z,100081.32
2023-05-20T21:52:25.780Z,100082.00
2023-05-20T21:54:52.876Z,100078.80
2023-05-20T21:57:19.914Z,100073.42
2023-05-20T21:59:46.936Z,100070.38
2023-05-20T22:02:13.870Z,100066.67
2023-05-20T22:04:40.864Z,100066.12
2023-05-20T22:07:09.653Z,100062.06
2023-05-20T22:09:36.710Z,100060.73
2023-05-20T22:12:03.941Z,100061.77
2023-05-20T22:14:31.019Z,100064.31
2023-05-20T22:16:58.742Z,100069.27
2023-05-20T22:19:26.868Z,100072.25
2023-05-20T22:21:53.960Z,100074.18
2023-05-20T22:24:21.119Z,100070.73
2023-05-20T22:26:48.126Z,100075.95
2023-05-20T22:29:15.157Z,100075.30
2023-05-20T22:31:42.290Z,100075.66
2023-05-20T22:34:09.346Z,100081.30
2023-05-20T22:36:37.564Z,100078.05
2023-05-20T22:39:04.960Z,100083.00
2023-05-20T22:41:32.157Z,100077.23
2023-05-20T22:43:59.172Z,100079.55
2023-05-20T22:46:26.410Z,100074.48
2023-05-20T22:48:54.656Z,100075.27
2023-05-20T22:51:21.815Z,100078.48
2023-05-20T22:53:48.989Z,100072.38
2023-05-20T22:56:16.357Z,100075.11
2023-05-20T22:58:43.843Z,100071.38
2023-05-20T23:01:10.923Z,100065.90
2023-05-20T23:03:38.265Z,100062.41
2023-05-20T23:06:05.558Z,100067.27
2023-05-20T23:08:32.509Z,100068.39
2023-05-20T23:10:59.467Z,100072.16
2023-05-20T23:13:26.619Z,100067.48
2023-05-20T23:15:54.526Z,100074.21
2023-05-20T23:18:21.682Z,100066.48
2023-05-20T23:20:48.833Z,100069.56
2023-05-20T23:23:16.536Z,100069.45
2023-05-20T23:25:45.848Z,100069.66
2023-05-20T23:28:13.140Z,100075.69
2023-05-20T23:30:40.106Z,100078.36
2023-05-20T23:33:07.324Z,100074.16
2023-05-20T23:35:34.795Z,100076.63
2023-05-20T23:38:02.767Z,100077.86
2023-05-20T23:40:29.844Z,100072.80
2023-05-20T23:42:56.779Z,100070.04
2023-05-20T23:45:24.612Z,100068.73
2023-05-20T23:47:51.965Z,100075.57
2023-05-20T23:50:19.120Z,100069.64
2023-05-20T23:52:46.436Z,100071.34
2023-05-20T23:55:14.414Z,100068.79
2023-05-20T23:57:41.574Z,100067.48
